sensor_id;sensor_type;location;lat;lon;timestamp;temperature;humidity
20670;DHT22;10494;50.868;4.180;2023-04-06T00:00:51;8.40;99.90
20670;DHT22;10494;50.868;4.180;2023-04-06T00:03:17;8.50;99.90
20670;DHT22;10494;50.868;4.180;2023-04-06T00:05:43;8.50;99.90
20670;DHT22;10494;50.868;4.180;2023-04-06T00:08:09;8.60;99.90
20670;DHT22;10494;50.868;4.180;2023-04-06T00:10:35;8.60;99.90
20670;DHT22;10494;50.868;4.180;2023-04-06T00:13:01;8.60;99.90
20670;DHT22;10494;50.868;4.180;2023-04-06T00:15:27;8.60;99.90
20670;DHT22;10494;50.868;4.180;2023-04-06T00:17:55;8.70;99.90
20670;DHT22;10494;50.868;4.180;2023-04-06T00:20:20;8.70;99.90
20670;DHT22;10494;50.868;4.180;2023-04-06T00:22:46;8.70;99.90
20670;DHT22;10494;50.868;4.180;2023-04-06T00:25:12;8.70;99.90
20670;DHT22;10494;50.868;4.180;2023-04-06T00:27:38;8.70;99.90
20670;DHT22;10494;50.868;4.180;2023-04-06T00:30:04;8.60;99.90
20670;DHT22;10494;50.868;4.180;2023-04-06T00:32:30;8.70;99.90
20670;DHT22;10494;50.868;4.180;2023-04-06T00:34:56;8.60;99.90
20670;DHT22;10494;50.868;4.180;2023-04-06T00:37:22;8.60;99.90
20670;DHT22;10494;50.868;4.180;2023-04-06T00:39:48;8.60;99.90
20670;DHT22;10494;50.868;4.180;2023-04-06T00:42:14;8.50;99.90
20670;DHT22;10494;50.868;4.180;2023-04-06T00:44:43;8.50;99.90
20670;DHT22;10494;50.868;4.180;2023-04-06T00:47:08;8.60;99.90
20670;DHT22;10494;50.868;4.180;2023-04-06T00:49:34;8.50;99.90
20670;DHT22;10494;50.868;4.180;2023-04-06T00:52:01;8.50;99.90
20670;DHT22;10494;50.868;4.180;2023-04-06T00:54:28;8.50;99.90
20670;DHT22;10494;50.868;4.180;2023-04-06T00:56:53;8.50;99.90
20670;DHT22;10494;50.868;4.180;2023-04-06T00:59:20;8.40;99.90
20670;DHT22;10494;50.868;4.180;2023-04-06T01:01:46;8.40;99.90
20670;DHT22;10494;50.868;4.180;2023-04-06T01:04:11;8.30;99.90
20670;DHT22;10494;50.868;4.180;2023-04-06T01:06:37;8.20;99.90
20670;DHT22;10494;50.868;4.180;2023-04-06T01:09:03;8.20;99.90
20670;DHT22;10494;50.868;4.180;2023-04-06T01:11:28;8.10;99.90
20670;DHT22;10494;50.868;4.180;2023-04-06T01:13:55;8.10;99.90
20670;DHT22;10494;50.868;4.180;2023-04-06T01:16:21;8.00;99.90
20670;DHT22;10494;50.868;4.180;2023-04-06T01:18:46;7.90;99.90
20670;DHT22;10494;50.868;4.180;2023-04-06T01:21:12;7.80;99.90
20670;DHT22;10494;50.868;4.180;2023-04-06T01:23:47;7.70;99.90
20670;DHT22;10494;50.868;4.180;2023-04-06T01:26:13;7.70;99.90
20670;DHT22;10494;50.868;4.180;2023-04-06T01:28:39;7.50;99.90
20670;DHT22;10494;50.868;4.180;2023-04-06T01:31:08;7.50;99.90
20670;DHT22;10494;50.868;4.180;2023-04-06T01:33:34;7.50;99.90
20670;DHT22;10494;50.868;4.180;2023-04-06T01:36:01;7.40;99.90
20670;DHT22;10494;50.868;4.180;2023-04-06T01:38:26;7.40;99.90
20670;DHT22;10494;50.868;4.180;2023-04-06T01:40:53;7.30;99.90
20670;DHT22;10494;50.868;4.180;2023-04-06T01:43:18;7.30;99.90
20670;DHT22;10494;50.868;4.180;2023-04-06T01:45:44;7.20;99.90
20670;DHT22;10494;50.868;4.180;2023-04-06T01:48:10;7.20;99.90
20670;DHT22;10494;50.868;4.180;2023-04-06T01:50:35;7.20;99.90
20670;DHT22;10494;50.868;4.180;2023-04-06T01:53:01;7.10;99.90
20670;DHT22;10494;50.868;4.180;2023-04-06T01:55:27;7.10;99.90
20670;DHT22;10494;50.868;4.180;2023-04-06T01:57:52;7.10;99.90
20670;DHT22;10494;50.868;4.180;2023-04-06T02:00:18;7.20;99.90
20670;DHT22;10494;50.868;4.180;2023-04-06T02:02:44;7.10;99.90
20670;DHT22;10494;50.868;4.180;2023-04-06T02:05:11;7.10;99.90
20670;DHT22;10494;50.868;4.180;2023-04-06T02:07:37;7.20;99.90
20670;DHT22;10494;50.868;4.180;2023-04-06T02:10:03;7.10;99.90
20670;DHT22;10494;50.868;4.180;2023-04-06T02:12:29;7.20;99.90
20670;DHT22;10494;50.868;4.180;2023-04-06T02:14:54;7.20;99.90
20670;DHT22;10494;50.868;4.180;2023-04-06T02:17:20;7.30;99.90
20670;DHT22;10494;50.868;4.180;2023-04-06T02:19:46;7.20;99.90
20670;DHT22;10494;50.868;4.180;2023-04-06T02:22:12;7.10;99.90
20670;DHT22;10494;50.868;4.180;2023-04-06T02:24:37;7.20;99.90
20670;DHT22;10494;50.868;4.180;2023-04-06T02:27:03;7.20;99.90
20670;DHT22;10494;50.868;4.180;2023-04-06T02:29:28;7.20;99.90
20670;DHT22;10494;50.868;4.180;2023-04-06T02:31:54;7.20;99.90
20670;DHT22;10494;50.868;4.180;2023-04-06T02:34:20;7.20;99.90
20670;DHT22;10494;50.868;4.180;2023-04-06T02:36:46;7.20;99.90
20670;DHT22;10494;50.868;4.180;2023-04-06T02:39:13;7.30;99.90
20670;DHT22;10494;50.868;4.180;2023-04-06T02:41:39;7.30;99.90
20670;DHT22;10494;50.868;4.180;2023-04-06T02:44:07;7.40;99.90
20670;DHT22;10494;50.868;4.180;2023-04-06T02:46:34;7.40;99.90
20670;DHT22;10494;50.868;4.180;2023-04-06T02:48:59;7.50;99.90
20670;DHT22;10494;50.868;4.180;2023-04-06T02:51:26;7.70;99.90
20670;DHT22;10494;50.868;4.180;2023-04-06T02:53:52;7.60;99.90
20670;DHT22;10494;50.868;4.180;2023-04-06T02:56:18;7.60;99.90
20670;DHT22;10494;50.868;4.180;2023-04-06T02:58:44;7.60;99.90
20670;DHT22;10494;50.868;4.180;2023-04-06T03:01:10;7.50;99.90
20670;DHT22;10494;50.868;4.180;2023-04-06T03:03:35;7.50;99.90
20670;DHT22;10494;50.868;4.180;2023-04-06T03:06:01;7.50;99.90
20670;DHT22;10494;50.868;4.180;2023-04-06T03:08:27;7.50;99.90
20670;DHT22;10494;50.868;4.180;2023-04-06T03:10:52;7.50;99.90
20670;DHT22;10494;50.868;4.180;2023-04-06T03:13:18;7.40;99.90
20670;DHT22;10494;50.868;4.180;2023-04-06T03:15:43;7.40;99.90
20670;DHT22;10494;50.868;4.180;2023-04-06T03:18:09;7.40;99.90
20670;DHT22;10494;50.868;4.180;2023-04-06T03:20:34;7.50;99.90
20670;DHT22;10494;50.868;4.180;2023-04-06T03:23:00;7.50;99.90
20670;DHT22;10494;50.868;4.180;2023-04-06T03:25:26;7.60;99.90
20670;DHT22;10494;50.868;4.180;2023-04-06T03:27:51;7.60;99.90
20670;DHT22;10494;50.868;4.180;2023-04-06T03:30:17;7.60;99.90
20670;DHT22;10494;50.868;4.180;2023-04-06T03:32:44;7.70;99.90
20670;DHT22;10494;50.868;4.180;2023-04-06T03:35:09;7.80;99.90
20670;DHT22;10494;50.868;4.180;2023-04-06T03:37:35;7.80;99.90
20670;DHT22;10494;50.868;4.180;2023-04-06T03:40:01;7.80;99.90
20670;DHT22;10494;50.868;4.180;2023-04-06T03:42:27;7.80;99.90
20670;DHT22;10494;50.868;4.180;2023-04-06T03:44:53;7.90;99.90
20670;DHT22;10494;50.868;4.180;2023-04-06T03:47:18;7.90;99.90
20670;DHT22;10494;50.868;4.180;2023-04-06T03:49:44;8.00;99.90
20670;DHT22;10494;50.868;4.180;2023-04-06T03:52:10;8.10;99.90
20670;DHT22;10494;50.868;4.180;2023-04-06T03:54:36;8.10;99.90
20670;DHT22;10494;50.868;4.180;2023-04-06T03:57:02;8.20;99.90
20670;DHT22;10494;50.868;4.180;2023-04-06T03:59:28;8.20;99.90
20670;DHT22;10494;50.868;4.180;2023-04-06T04:01:53;8.20;99.90
20670;DHT22;10494;50.868;4.180;2023-04-06T04:04:19;8.20;99.90
20670;DHT22;10494;50.868;4.180;2023-04-06T04:06:45;8.20;99.90
20670;DHT22;10494;50.868;4.180;2023-04-06T04:09:10;8.20;99.90
20670;DHT22;10494;50.868;4.180;2023-04-06T04:11:36;8.30;99.90
20670;DHT22;10494;50.868;4.180;2023-04-06T04:14:02;8.30;99.90
20670;DHT22;10494;50.868;4.180;2023-04-06T04:16:27;8.40;99.90
20670;DHT22;10494;50.868;4.180;2023-04-06T04:18:53;8.40;99.90
20670;DHT22;10494;50.868;4.180;2023-04-06T04:21:18;8.40;99.90
20670;DHT22;10494;50.868;4.180;2023-04-06T04:23:44;8.50;99.90
20670;DHT22;10494;50.868;4.180;2023-04-06T04:26:10;8.50;99.90
20670;DHT22;10494;50.868;4.180;2023-04-06T04:28:36;8.50;99.90
20670;DHT22;10494;50.868;4.180;2023-04-06T04:31:01;8.50;99.90
20670;DHT22;10494;50.868;4.180;2023-04-06T04:33:27;8.50;99.90
20670;DHT22;10494;50.868;4.180;2023-04-06T04:35:52;8.50;99.90
20670;DHT22;10494;50.868;4.180;2023-04-06T04:38:18;8.50;99.90
20670;DHT22;10494;50.868;4.180;2023-04-06T04:40:44;8.60;99.90
20670;DHT22;10494;50.868;4.180;2023-04-06T04:43:09;8.50;99.90
20670;DHT22;10494;50.868;4.180;2023-04-06T04:45:35;8.60;99.90
20670;DHT22;10494;50.868;4.180;2023-04-06T04:48:01;8.60;99.90
20670;DHT22;10494;50.868;4.180;2023-04-06T04:50:26;8.60;99.90
20670;DHT22;10494;50.868;4.180;2023-04-06T04:52:52;8.60;99.90
20670;DHT22;10494;50.868;4.180;2023-04-06T04:55:17;8.80;99.90
20670;DHT22;10494;50.868;4.180;2023-04-06T04:57:43;9.00;99.90
20670;DHT22;10494;50.868;4.180;2023-04-06T05:00:09;8.90;99.90
20670;DHT22;10494;50.868;4.180;2023-04-06T05:02:35;8.80;99.90
20670;DHT22;10494;50.868;4.180;2023-04-06T05:05:01;8.70;99.90
20670;DHT22;10494;50.868;4.180;2023-04-06T05:07:26;8.60;99.90
20670;DHT22;10494;50.868;4.180;2023-04-06T05:09:52;8.70;99.90
20670;DHT22;10494;50.868;4.180;2023-04-06T05:12:19;8.70;99.90
20670;DHT22;10494;50.868;4.180;2023-04-06T05:14:45;8.60;99.90
20670;DHT22;10494;50.868;4.180;2023-04-06T05:17:11;8.50;99.90
20670;DHT22;10494;50.868;4.180;2023-04-06T05:19:36;8.50;99.90
20670;DHT22;10494;50.868;4.180;2023-04-06T05:22:02;8.60;99.90
20670;DHT22;10494;50.868;4.180;2023-04-06T05:24:28;8.50;99.90
20670;DHT22;10494;50.868;4.180;2023-04-06T05:26:54;8.50;99.90
20670;DHT22;10494;50.868;4.180;2023-04-06T05:29:19;8.50;99.90
20670;DHT22;10494;50.868;4.180;2023-04-06T05:31:46;8.50;99.90
20670;DHT22;10494;50.868;4.180;2023-04-06T05:34:12;8.50;99.90
20670;DHT22;10494;50.868;4.180;2023-04-06T05:36:38;8.60;99.90
20670;DHT22;10494;50.868;4.180;2023-04-06T05:39:04;8.60;99.90
20670;DHT22;10494;50.868;4.180;2023-04-06T05:41:29;8.60;99.90
20670;DHT22;10494;50.868;4.180;2023-04-06T05:43:55;8.50;99.90
20670;DHT22;10494;50.868;4.180;2023-04-06T05:46:21;8.60;99.90
20670;DHT22;10494;50.868;4.180;2023-04-06T05:48:46;8.60;99.90
20670;DHT22;10494;50.868;4.180;2023-04-06T05:51:12;8.70;99.90
20670;DHT22;10494;50.868;4.180;2023-04-06T05:53:38;8.70;99.90
20670;DHT22;10494;50.868;4.180;2023-04-06T05:56:03;8.70;99.90
20670;DHT22;10494;50.868;4.180;2023-04-06T05:58:29;8.80;99.90
20670;DHT22;10494;50.868;4.180;2023-04-06T06:00:59;8.80;99.90
20670;DHT22;10494;50.868;4.180;2023-04-06T06:03:25;8.90;99.90
20670;DHT22;10494;50.868;4.180;2023-04-06T06:05:50;8.80;99.90
20670;DHT22;10494;50.868;4.180;2023-04-06T06:08:16;8.70;99.90
20670;DHT22;10494;50.868;4.180;2023-04-06T06:10:42;8.60;99.90
20670;DHT22;10494;50.868;4.180;2023-04-06T06:13:08;8.60;99.90
20670;DHT22;10494;50.868;4.180;2023-04-06T06:15:34;8.60;99.90
20670;DHT22;10494;50.868;4.180;2023-04-06T06:18:00;8.50;99.90
20670;DHT22;10494;50.868;4.180;2023-04-06T06:20:26;8.40;99.90
20670;DHT22;10494;50.868;4.180;2023-04-06T06:22:52;8.40;99.90
20670;DHT22;10494;50.868;4.180;2023-04-06T06:25:17;8.30;99.90
20670;DHT22;10494;50.868;4.180;2023-04-06T06:27:43;8.30;99.90
20670;DHT22;10494;50.868;4.180;2023-04-06T06:30:09;8.20;99.90
20670;DHT22;10494;50.868;4.180;2023-04-06T06:32:35;8.10;99.90
20670;DHT22;10494;50.868;4.180;2023-04-06T06:35:00;8.10;99.90
20670;DHT22;10494;50.868;4.180;2023-04-06T06:37:26;8.10;99.90
20670;DHT22;10494;50.868;4.180;2023-04-06T06:39:52;8.10;99.90
20670;DHT22;10494;50.868;4.180;2023-04-06T06:42:17;8.10;99.90
20670;DHT22;10494;50.868;4.180;2023-04-06T06:44:43;8.00;99.90
20670;DHT22;10494;50.868;4.180;2023-04-06T06:47:08;8.10;99.90
20670;DHT22;10494;50.868;4.180;2023-04-06T06:49:34;8.00;99.90
20670;DHT22;10494;50.868;4.180;2023-04-06T06:52:00;8.00;99.90
20670;DHT22;10494;50.868;4.180;2023-04-06T06:54:26;8.00;99.90
20670;DHT22;10494;50.868;4.180;2023-04-06T06:56:51;7.90;99.90
20670;DHT22;10494;50.868;4.180;2023-04-06T06:59:17;8.00;99.90
20670;DHT22;10494;50.868;4.180;2023-04-06T07:01:43;7.90;99.90
20670;DHT22;10494;50.868;4.180;2023-04-06T07:04:08;7.90;99.90
20670;DHT22;10494;50.868;4.180;2023-04-06T07:06:37;7.80;99.90
20670;DHT22;10494;50.868;4.180;2023-04-06T07:09:03;7.70;99.90
20670;DHT22;10494;50.868;4.180;2023-04-06T07:11:29;7.70;99.90
20670;DHT22;10494;50.868;4.180;2023-04-06T07:13:55;7.60;99.90
20670;DHT22;10494;50.868;4.180;2023-04-06T07:16:21;7.60;99.90
20670;DHT22;10494;50.868;4.180;2023-04-06T07:18:46;7.60;99.90
20670;DHT22;10494;50.868;4.180;2023-04-06T07:21:12;7.50;99.90
20670;DHT22;10494;50.868;4.180;2023-04-06T07:23:38;7.50;99.90
20670;DHT22;10494;50.868;4.180;2023-04-06T07:26:04;7.60;99.90
20670;DHT22;10494;50.868;4.180;2023-04-06T07:28:30;7.60;99.90
20670;DHT22;10494;50.868;4.180;2023-04-06T07:30:55;7.70;99.90
20670;DHT22;10494;50.868;4.180;2023-04-06T07:33:21;7.70;99.90
20670;DHT22;10494;50.868;4.180;2023-04-06T07:35:47;7.70;99.90
20670;DHT22;10494;50.868;4.180;2023-04-06T07:38:13;7.70;99.90
20670;DHT22;10494;50.868;4.180;2023-04-06T07:40:39;7.50;99.90
20670;DHT22;10494;50.868;4.180;2023-04-06T07:43:04;7.60;99.90
20670;DHT22;10494;50.868;4.180;2023-04-06T07:45:30;7.50;99.90
20670;DHT22;10494;50.868;4.180;2023-04-06T07:47:56;7.40;99.90
20670;DHT22;10494;50.868;4.180;2023-04-06T07:50:22;7.50;99.90
20670;DHT22;10494;50.868;4.180;2023-04-06T07:52:48;7.50;99.90
20670;DHT22;10494;50.868;4.180;2023-04-06T07:55:13;7.50;99.90
20670;DHT22;10494;50.868;4.180;2023-04-06T07:57:39;7.50;99.90
20670;DHT22;10494;50.868;4.180;2023-04-06T08:00:05;7.60;99.90
20670;DHT22;10494;50.868;4.180;2023-04-06T08:02:31;7.70;99.90
20670;DHT22;10494;50.868;4.180;2023-04-06T08:04:57;7.70;99.90
20670;DHT22;10494;50.868;4.180;2023-04-06T08:07:23;7.70;99.90
20670;DHT22;10494;50.868;4.180;2023-04-06T08:09:49;7.70;99.90
20670;DHT22;10494;50.868;4.180;2023-04-06T08:12:14;7.60;99.90
20670;DHT22;10494;50.868;4.180;2023-04-06T08:14:40;7.70;99.90
20670;DHT22;10494;50.868;4.180;2023-04-06T08:17:06;7.70;99.90
20670;DHT22;10494;50.868;4.180;2023-04-06T08:19:31;7.60;99.90
20670;DHT22;10494;50.868;4.180;2023-04-06T08:21:57;7.70;99.90
20670;DHT22;10494;50.868;4.180;2023-04-06T08:24:23;7.70;99.90
20670;DHT22;10494;50.868;4.180;2023-04-06T08:26:48;7.80;99.90
20670;DHT22;10494;50.868;4.180;2023-04-06T08:29:15;7.80;99.90
20670;DHT22;10494;50.868;4.180;2023-04-06T08:31:41;7.80;99.90
20670;DHT22;10494;50.868;4.180;2023-04-06T08:34:07;7.90;99.90
20670;DHT22;10494;50.868;4.180;2023-04-06T08:36:32;8.00;99.90
20670;DHT22;10494;50.868;4.180;2023-04-06T08:38:59;8.00;99.90
20670;DHT22;10494;50.868;4.180;2023-04-06T08:41:25;7.90;99.90
20670;DHT22;10494;50.868;4.180;2023-04-06T08:43:59;7.90;99.90
20670;DHT22;10494;50.868;4.180;2023-04-06T08:46:25;8.10;99.90
20670;DHT22;10494;50.868;4.180;2023-04-06T08:48:56;8.10;99.90
20670;DHT22;10494;50.868;4.180;2023-04-06T08:51:26;8.20;99.90
20670;DHT22;10494;50.868;4.180;2023-04-06T08:53:56;8.20;99.90
20670;DHT22;10494;50.868;4.180;2023-04-06T08:56:23;8.20;99.90
20670;DHT22;10494;50.868;4.180;2023-04-06T08:58:49;8.30;99.90
20670;DHT22;10494;50.868;4.180;2023-04-06T09:01:20;8.20;99.90
20670;DHT22;10494;50.868;4.180;2023-04-06T09:03:46;8.20;99.90
20670;DHT22;10494;50.868;4.180;2023-04-06T09:06:14;8.20;99.90
20670;DHT22;10494;50.868;4.180;2023-04-06T09:08:41;8.10;99.90
20670;DHT22;10494;50.868;4.180;2023-04-06T09:11:07;8.00;99.90
20670;DHT22;10494;50.868;4.180;2023-04-06T09:13:45;8.00;99.90
20670;DHT22;10494;50.868;4.180;2023-04-06T09:16:11;8.10;99.90
20670;DHT22;10494;50.868;4.180;2023-04-06T09:18:37;8.20;99.90
20670;DHT22;10494;50.868;4.180;2023-04-06T09:21:05;8.10;99.90
20670;DHT22;10494;50.868;4.180;2023-04-06T09:23:31;8.20;99.90
20670;DHT22;10494;50.868;4.180;2023-04-06T09:26:10;8.10;99.90
20670;DHT22;10494;50.868;4.180;2023-04-06T09:28:46;8.10;99.90
20670;DHT22;10494;50.868;4.180;2023-04-06T09:31:14;8.10;99.90
20670;DHT22;10494;50.868;4.180;2023-04-06T09:33:43;8.20;99.90
20670;DHT22;10494;50.868;4.180;2023-04-06T09:36:09;8.20;99.90
20670;DHT22;10494;50.868;4.180;2023-04-06T09:38:40;8.20;99.90
20670;DHT22;10494;50.868;4.180;2023-04-06T09:41:28;8.40;99.90
20670;DHT22;10494;50.868;4.180;2023-04-06T09:44:12;8.40;99.90
20670;DHT22;10494;50.868;4.180;2023-04-06T09:46:43;8.40;99.90
20670;DHT22;10494;50.868;4.180;2023-04-06T09:49:10;8.50;99.90
20670;DHT22;10494;50.868;4.180;2023-04-06T09:51:41;8.50;99.90
20670;DHT22;10494;50.868;4.180;2023-04-06T09:54:11;8.50;99.90
20670;DHT22;10494;50.868;4.180;2023-04-06T09:56:46;8.50;99.90
20670;DHT22;10494;50.868;4.180;2023-04-06T10:01:53;8.60;99.90
20670;DHT22;10494;50.868;4.180;2023-04-06T10:04:43;8.50;99.90
20670;DHT22;10494;50.868;4.180;2023-04-06T10:07:09;8.40;99.90
20670;DHT22;10494;50.868;4.180;2023-04-06T10:09:37;8.40;99.90
20670;DHT22;10494;50.868;4.180;2023-04-06T10:12:06;8.50;99.90
20670;DHT22;10494;50.868;4.180;2023-04-06T10:14:36;8.50;99.90
20670;DHT22;10494;50.868;4.180;2023-04-06T10:17:03;8.60;99.90
20670;DHT22;10494;50.868;4.180;2023-04-06T10:19:39;8.60;99.90
20670;DHT22;10494;50.868;4.180;2023-04-06T10:22:08;8.70;99.90
20670;DHT22;10494;50.868;4.180;2023-04-06T10:24:35;8.80;99.90
20670;DHT22;10494;50.868;4.180;2023-04-06T10:27:02;8.80;99.90
20670;DHT22;10494;50.868;4.180;2023-04-06T10:29:40;8.80;99.90
20670;DHT22;10494;50.868;4.180;2023-04-06T10:32:06;8.90;99.90
20670;DHT22;10494;50.868;4.180;2023-04-06T10:34:35;8.80;99.90
20670;DHT22;10494;50.868;4.180;2023-04-06T10:37:13;8.80;99.90
20670;DHT22;10494;50.868;4.180;2023-04-06T10:39:46;8.90;99.90
20670;DHT22;10494;50.868;4.180;2023-04-06T10:42:12;8.90;99.90
20670;DHT22;10494;50.868;4.180;2023-04-06T10:44:42;8.90;99.90
20670;DHT22;10494;50.868;4.180;2023-04-06T10:47:16;8.90;99.90
20670;DHT22;10494;50.868;4.180;2023-04-06T10:49:42;9.00;99.90
20670;DHT22;10494;50.868;4.180;2023-04-06T10:52:08;9.10;99.90
20670;DHT22;10494;50.868;4.180;2023-04-06T10:54:42;9.30;99.90
20670;DHT22;10494;50.868;4.180;2023-04-06T10:57:12;9.30;99.90
20670;DHT22;10494;50.868;4.180;2023-04-06T10:59:42;9.30;99.90
20670;DHT22;10494;50.868;4.180;2023-04-06T11:02:08;9.30;99.90
20670;DHT22;10494;50.868;4.180;2023-04-06T11:04:54;9.30;99.90
20670;DHT22;10494;50.868;4.180;2023-04-06T11:07:23;9.30;99.90
20670;DHT22;10494;50.868;4.180;2023-04-06T11:09:50;9.30;99.90
20670;DHT22;10494;50.868;4.180;2023-04-06T11:12:23;9.30;99.90
20670;DHT22;10494;50.868;4.180;2023-04-06T11:15:00;9.50;99.90
20670;DHT22;10494;50.868;4.180;2023-04-06T11:17:31;9.60;99.90
20670;DHT22;10494;50.868;4.180;2023-04-06T11:19:57;9.50;99.90
20670;DHT22;10494;50.868;4.180;2023-04-06T11:22:24;9.40;99.90
20670;DHT22;10494;50.868;4.180;2023-04-06T11:24:50;9.40;99.90
20670;DHT22;10494;50.868;4.180;2023-04-06T11:27:16;9.40;99.90
20670;DHT22;10494;50.868;4.180;2023-04-06T11:29:43;9.40;99.90
20670;DHT22;10494;50.868;4.180;2023-04-06T11:32:09;9.50;99.90
20670;DHT22;10494;50.868;4.180;2023-04-06T11:34:39;9.50;99.90
20670;DHT22;10494;50.868;4.180;2023-04-06T11:37:11;9.50;99.90
20670;DHT22;10494;50.868;4.180;2023-04-06T11:39:51;9.30;99.90
20670;DHT22;10494;50.868;4.180;2023-04-06T11:42:27;9.30;99.90
20670;DHT22;10494;50.868;4.180;2023-04-06T11:44:57;9.20;99.90
20670;DHT22;10494;50.868;4.180;2023-04-06T11:47:33;9.10;99.90
20670;DHT22;10494;50.868;4.180;2023-04-06T11:50:11;9.20;99.90
20670;DHT22;10494;50.868;4.180;2023-04-06T11:52:39;9.30;99.90
20670;DHT22;10494;50.868;4.180;2023-04-06T11:55:15;9.30;99.90
20670;DHT22;10494;50.868;4.180;2023-04-06T11:57:42;9.40;99.90
20670;DHT22;10494;50.868;4.180;2023-04-06T12:00:09;9.30;99.90
20670;DHT22;10494;50.868;4.180;2023-04-06T12:02:39;9.40;99.90
20670;DHT22;10494;50.868;4.180;2023-04-06T12:05:05;9.30;99.90
20670;DHT22;10494;50.868;4.180;2023-04-06T12:07:32;9.30;99.90
20670;DHT22;10494;50.868;4.180;2023-04-06T12:09:58;9.30;99.90
20670;DHT22;10494;50.868;4.180;2023-04-06T12:12:24;9.30;99.90
20670;DHT22;10494;50.868;4.180;2023-04-06T12:14:50;9.30;99.90
20670;DHT22;10494;50.868;4.180;2023-04-06T12:17:16;9.40;99.90
20670;DHT22;10494;50.868;4.180;2023-04-06T12:19:42;9.30;99.90
20670;DHT22;10494;50.868;4.180;2023-04-06T12:22:07;9.40;99.90
20670;DHT22;10494;50.868;4.180;2023-04-06T12:24:33;9.30;99.90
20670;DHT22;10494;50.868;4.180;2023-04-06T12:26:59;9.30;99.90
20670;DHT22;10494;50.868;4.180;2023-04-06T12:29:24;9.20;99.90
20670;DHT22;10494;50.868;4.180;2023-04-06T12:31:50;9.30;99.90
20670;DHT22;10494;50.868;4.180;2023-04-06T12:34:16;9.20;99.90
20670;DHT22;10494;50.868;4.180;2023-04-06T12:36:42;9.20;99.90
20670;DHT22;10494;50.868;4.180;2023-04-06T12:39:07;9.10;99.90
20670;DHT22;10494;50.868;4.180;2023-04-06T12:41:33;9.10;99.90
20670;DHT22;10494;50.868;4.180;2023-04-06T12:43:59;9.10;99.90
20670;DHT22;10494;50.868;4.180;2023-04-06T12:46:25;9.10;99.90
20670;DHT22;10494;50.868;4.180;2023-04-06T12:48:51;9.00;99.90
20670;DHT22;10494;50.868;4.180;2023-04-06T12:51:20;9.00;99.90
20670;DHT22;10494;50.868;4.180;2023-04-06T12:53:47;9.00;99.90
20670;DHT22;10494;50.868;4.180;2023-04-06T12:56:17;9.00;99.90
20670;DHT22;10494;50.868;4.180;2023-04-06T12:58:43;8.90;99.90
20670;DHT22;10494;50.868;4.180;2023-04-06T13:01:10;9.00;99.90
20670;DHT22;10494;50.868;4.180;2023-04-06T13:03:38;9.00;99.90
20670;DHT22;10494;50.868;4.180;2023-04-06T13:06:04;9.00;99.90
20670;DHT22;10494;50.868;4.180;2023-04-06T13:08:29;9.10;99.90
20670;DHT22;10494;50.868;4.180;2023-04-06T13:10:55;9.10;99.90
20670;DHT22;10494;50.868;4.180;2023-04-06T13:13:27;9.30;99.90
20670;DHT22;10494;50.868;4.180;2023-04-06T13:16:00;9.30;99.90
20670;DHT22;10494;50.868;4.180;2023-04-06T13:18:28;9.40;99.90
20670;DHT22;10494;50.868;4.180;2023-04-06T13:20:55;9.50;99.90
20670;DHT22;10494;50.868;4.180;2023-04-06T13:23:21;9.50;99.90
20670;DHT22;10494;50.868;4.180;2023-04-06T13:25:47;9.60;99.90
20670;DHT22;10494;50.868;4.180;2023-04-06T13:28:13;9.70;99.90
20670;DHT22;10494;50.868;4.180;2023-04-06T13:30:39;9.60;99.90
20670;DHT22;10494;50.868;4.180;2023-04-06T13:33:05;9.60;99.90
20670;DHT22;10494;50.868;4.180;2023-04-06T13:35:32;9.60;99.90
20670;DHT22;10494;50.868;4.180;2023-04-06T13:37:57;9.60;99.90
20670;DHT22;10494;50.868;4.180;2023-04-06T13:40:23;9.60;99.90
20670;DHT22;10494;50.868;4.180;2023-04-06T13:42:49;9.50;99.90
20670;DHT22;10494;50.868;4.180;2023-04-06T13:45:14;9.50;99.90
20670;DHT22;10494;50.868;4.180;2023-04-06T13:47:40;9.60;99.90
20670;DHT22;10494;50.868;4.180;2023-04-06T13:50:06;9.60;99.90
20670;DHT22;10494;50.868;4.180;2023-04-06T13:52:32;9.60;99.90
20670;DHT22;10494;50.868;4.180;2023-04-06T13:54:58;9.50;99.90
20670;DHT22;10494;50.868;4.180;2023-04-06T13:57:23;9.50;99.90
20670;DHT22;10494;50.868;4.180;2023-04-06T13:59:49;9.40;99.90
20670;DHT22;10494;50.868;4.180;2023-04-06T14:02:17;9.40;99.90
20670;DHT22;10494;50.868;4.180;2023-04-06T14:04:44;9.50;99.90
20670;DHT22;10494;50.868;4.180;2023-04-06T14:07:10;9.50;99.90
20670;DHT22;10494;50.868;4.180;2023-04-06T14:09:35;9.50;99.90
20670;DHT22;10494;50.868;4.180;2023-04-06T14:12:01;9.60;99.90
20670;DHT22;10494;50.868;4.180;2023-04-06T14:14:27;9.70;99.90
20670;DHT22;10494;50.868;4.180;2023-04-06T14:16:53;9.70;99.90
20670;DHT22;10494;50.868;4.180;2023-04-06T14:19:19;9.70;99.90
20670;DHT22;10494;50.868;4.180;2023-04-06T14:21:47;9.80;99.90
20670;DHT22;10494;50.868;4.180;2023-04-06T14:24:13;9.80;99.90
20670;DHT22;10494;50.868;4.180;2023-04-06T14:26:40;9.80;99.90
20670;DHT22;10494;50.868;4.180;2023-04-06T14:29:07;9.80;99.90
20670;DHT22;10494;50.868;4.180;2023-04-06T14:31:32;9.80;99.90
20670;DHT22;10494;50.868;4.180;2023-04-06T14:34:01;9.80;99.90
20670;DHT22;10494;50.868;4.180;2023-04-06T14:36:27;10.00;99.90
20670;DHT22;10494;50.868;4.180;2023-04-06T14:38:56;10.10;99.90
20670;DHT22;10494;50.868;4.180;2023-04-06T14:41:23;10.20;99.90
20670;DHT22;10494;50.868;4.180;2023-04-06T14:43:48;10.20;99.90
20670;DHT22;10494;50.868;4.180;2023-04-06T14:46:14;10.20;99.90
20670;DHT22;10494;50.868;4.180;2023-04-06T14:48:43;10.30;99.90
20670;DHT22;10494;50.868;4.180;2023-04-06T14:51:09;10.40;99.90
20670;DHT22;10494;50.868;4.180;2023-04-06T14:53:35;10.40;99.90
20670;DHT22;10494;50.868;4.180;2023-04-06T14:56:00;10.50;99.90
20670;DHT22;10494;50.868;4.180;2023-04-06T14:58:26;10.40;99.90
20670;DHT22;10494;50.868;4.180;2023-04-06T15:00:58;10.50;99.90
20670;DHT22;10494;50.868;4.180;2023-04-06T15:03:28;10.60;99.90
20670;DHT22;10494;50.868;4.180;2023-04-06T15:05:55;10.60;99.90
20670;DHT22;10494;50.868;4.180;2023-04-06T15:08:24;10.70;99.90
20670;DHT22;10494;50.868;4.180;2023-04-06T15:10:50;10.70;99.90
20670;DHT22;10494;50.868;4.180;2023-04-06T15:13:17;10.90;99.90
20670;DHT22;10494;50.868;4.180;2023-04-06T15:15:43;10.90;99.90
20670;DHT22;10494;50.868;4.180;2023-04-06T15:18:10;10.90;99.90
20670;DHT22;10494;50.868;4.180;2023-04-06T15:20:35;10.90;99.90
20670;DHT22;10494;50.868;4.180;2023-04-06T15:23:02;11.10;99.90
20670;DHT22;10494;50.868;4.180;2023-04-06T15:25:28;11.20;99.90
20670;DHT22;10494;50.868;4.180;2023-04-06T15:27:54;11.50;99.90
20670;DHT22;10494;50.868;4.180;2023-04-06T15:30:20;11.60;99.90
20670;DHT22;10494;50.868;4.180;2023-04-06T15:32:57;11.70;99.90
20670;DHT22;10494;50.868;4.180;2023-04-06T15:35:24;11.80;99.90
20670;DHT22;10494;50.868;4.180;2023-04-06T15:37:51;11.80;99.90
20670;DHT22;10494;50.868;4.180;2023-04-06T15:40:17;11.80;99.90
20670;DHT22;10494;50.868;4.180;2023-04-06T15:42:42;11.80;99.90
20670;DHT22;10494;50.868;4.180;2023-04-06T15:45:09;11.90;99.90